createdAt,value
2023-01-08T00:01:59.787Z,9.25
2023-01-08T00:04:02.310Z,9.27
2023-01-08T00:06:05.974Z,9.31
2023-01-08T00:08:09.544Z,9.32
2023-01-08T00:10:11.005Z,9.31
2023-01-08T00:12:12.432Z,9.33
2023-01-08T00:14:13.874Z,9.32
2023-01-08T00:16:17.987Z,9.32
2023-01-08T00:18:19.791Z,9.35
2023-01-08T00:20:21.445Z,9.37
2023-01-08T00:22:22.914Z,9.38
2023-01-08T00:24:24.459Z,9.38
2023-01-08T00:26:25.907Z,9.36
2023-01-08T00:28:27.349Z,9.34
2023-01-08T00:30:29.211Z,9.35
2023-01-08T00:32:30.670Z,9.35
2023-01-08T00:34:32.160Z,9.37
2023-01-08T00:36:33.629Z,9.41
2023-01-08T00:38:35.089Z,9.43
2023-01-08T00:40:37.289Z,9.43
2023-01-08T00:42:38.761Z,9.44
2023-01-08T00:44:40.249Z,9.42
2023-01-08T00:46:41.698Z,9.42
2023-01-08T00:48:43.136Z,9.44
2023-01-08T00:50:44.586Z,9.44
2023-01-08T00:52:46.053Z,9.43
2023-01-08T00:54:47.491Z,9.43
2023-01-08T00:56:48.975Z,9.42
2023-01-08T00:58:50.394Z,9.42
2023-01-08T01:00:51.916Z,9.43
2023-01-08T01:02:53.391Z,9.46
2023-01-08T01:04:54.868Z,9.48
2023-01-08T01:06:56.320Z,9.49
2023-01-08T01:08:57.792Z,9.49
2023-01-08T01:10:59.299Z,9.49
2023-01-08T01:13:00.785Z,9.48
2023-01-08T01:15:02.344Z,9.49
2023-01-08T01:17:04.726Z,9.46
2023-01-08T01:19:06.236Z,9.43
2023-01-08T01:21:22.195Z,9.39
2023-01-08T01:23:23.664Z,9.38
2023-01-08T01:25:25.101Z,9.37
2023-01-08T01:27:26.879Z,9.38
2023-01-08T01:29:28.402Z,9.38
2023-01-08T01:31:31.571Z,9.37
2023-01-08T01:33:33.092Z,9.39
2023-01-08T01:35:34.546Z,9.38
2023-01-08T01:37:36.159Z,9.38
2023-01-08T01:39:37.631Z,9.38
2023-01-08T01:41:44.670Z,9.39
2023-01-08T01:43:46.106Z,9.40
2023-01-08T01:45:47.667Z,9.41
2023-01-08T01:48:05.853Z,9.39
2023-01-08T01:50:07.425Z,9.36
2023-01-08T01:52:09.778Z,9.36
2023-01-08T01:54:13.132Z,9.35
2023-01-08T01:56:15.135Z,9.37
2023-01-08T01:58:21.414Z,9.38
2023-01-08T02:00:23.285Z,9.40
2023-01-08T02:02:24.896Z,9.42
2023-01-08T02:04:26.506Z,9.43
2023-01-08T02:06:36.652Z,9.46
2023-01-08T02:08:57.262Z,9.51
2023-01-08T02:11:11.525Z,9.54
2023-01-08T02:13:17.643Z,9.57
2023-01-08T02:15:37.458Z,9.58
2023-01-08T02:18:06.905Z,9.62
2023-01-08T02:20:11.627Z,9.62
2023-01-08T02:22:36.679Z,9.63
2023-01-08T02:24:50.214Z,9.65
2023-01-08T02:26:53.751Z,9.66
2023-01-08T02:29:07.533Z,9.67
2023-01-08T02:31:09.331Z,9.67
2023-01-08T02:33:11.897Z,9.67
2023-01-08T02:35:13.451Z,9.69
2023-01-08T02:37:14.965Z,9.67
2023-01-08T02:39:50.285Z,9.67
2023-01-08T02:42:06.811Z,9.66
2023-01-08T02:44:12.456Z,9.67
2023-01-08T02:46:27.961Z,9.67
2023-01-08T02:48:35.327Z,9.69
2023-01-08T02:50:53.352Z,9.70
2023-01-08T02:53:13.004Z,9.72
2023-01-08T02:55:16.820Z,9.74
2023-01-08T02:57:20.035Z,9.74
2023-01-08T02:59:23.660Z,9.76
2023-01-08T03:01:27.313Z,9.75
2023-01-08T03:03:31.000Z,9.75
2023-01-08T03:05:33.573Z,9.76
2023-01-08T03:07:35.914Z,9.73
2023-01-08T03:09:37.506Z,9.72
2023-01-08T03:11:49.811Z,9.70
2023-01-08T03:14:20.271Z,9.69
2023-01-08T03:16:29.286Z,9.65
2023-01-08T03:18:39.878Z,9.66
2023-01-08T03:20:42.103Z,9.64
2023-01-08T03:22:47.762Z,9.66
2023-01-08T03:24:52.714Z,9.66
2023-01-08T03:26:58.398Z,9.64
2023-01-08T03:29:01.403Z,9.64
2023-01-08T03:31:03.380Z,9.65
2023-01-08T03:33:07.133Z,9.66
2023-01-08T03:35:11.643Z,9.66
2023-01-08T03:37:15.769Z,9.67
2023-01-08T03:39:22.760Z,9.67
2023-01-08T03:41:27.795Z,9.66
2023-01-08T03:43:29.829Z,9.65
2023-01-08T03:45:32.956Z,9.66
2023-01-08T03:47:37.414Z,9.64
2023-01-08T03:49:41.736Z,9.64
2023-01-08T03:51:45.742Z,9.61
2023-01-08T03:53:49.322Z,9.59
2023-01-08T03:55:50.826Z,9.57
2023-01-08T03:57:52.314Z,9.56
2023-01-08T03:59:53.775Z,9.56
2023-01-08T04:01:55.409Z,9.54
2023-01-08T04:03:57.004Z,9.52
2023-01-08T04:06:01.596Z,9.49
2023-01-08T04:08:03.059Z,9.47
2023-01-08T04:10:05.011Z,9.45
2023-01-08T04:12:06.622Z,9.43
2023-01-08T04:14:08.177Z,9.42
2023-01-08T04:16:09.766Z,9.39
2023-01-08T04:18:11.212Z,9.37
2023-01-08T04:20:12.705Z,9.37
2023-01-08T04:22:14.177Z,9.34
2023-01-08T04:24:15.667Z,9.33
2023-01-08T04:26:17.120Z,9.36
2023-01-08T04:28:19.346Z,9.35
2023-01-08T04:30:20.805Z,9.35
2023-01-08T04:32:22.252Z,9.34
2023-01-08T04:34:23.697Z,9.33
2023-01-08T04:36:25.429Z,9.32
2023-01-08T04:38:27.133Z,9.29
2023-01-08T04:40:28.733Z,9.28
2023-01-08T04:42:30.163Z,9.29
2023-01-08T04:44:31.635Z,9.28
2023-01-08T04:46:33.118Z,9.27
2023-01-08T04:48:35.374Z,9.27
2023-01-08T04:50:36.814Z,9.28
2023-01-08T04:52:38.273Z,9.28
2023-01-08T04:54:39.767Z,9.27
2023-01-08T04:56:41.213Z,9.28
2023-01-08T04:58:42.675Z,9.28
2023-01-08T05:00:44.135Z,9.26
2023-01-08T05:02:45.743Z,9.25
2023-01-08T05:04:48.291Z,9.24
2023-01-08T05:06:49.733Z,9.22
2023-01-08T05:08:51.237Z,9.21
2023-01-08T05:10:52.679Z,9.20
2023-01-08T05:13:01.389Z,9.18
2023-01-08T05:15:02.862Z,9.16
2023-01-08T05:17:04.343Z,9.16
2023-01-08T05:19:05.882Z,9.13
2023-01-08T05:21:07.378Z,9.12
2023-01-08T05:23:08.809Z,9.11
2023-01-08T05:25:10.286Z,9.10
2023-01-08T05:27:11.752Z,9.09
2023-01-08T05:29:13.367Z,9.08
2023-01-08T05:31:16.864Z,9.07
2023-01-08T05:33:18.775Z,9.05
2023-01-08T05:35:20.210Z,9.02
2023-01-08T05:37:21.865Z,9.00
2023-01-08T05:39:23.321Z,9.00
2023-01-08T05:41:24.908Z,9.00
2023-01-08T05:43:26.692Z,8.99
2023-01-08T05:45:28.429Z,8.99
2023-01-08T05:47:31.501Z,9.00
2023-01-08T05:49:32.957Z,9.01
2023-01-08T05:51:34.417Z,9.01
2023-01-08T05:53:35.996Z,9.02
2023-01-08T05:55:37.476Z,9.02
2023-01-08T05:57:38.983Z,9.05
2023-01-08T05:59:40.480Z,9.07
2023-01-08T06:01:42.020Z,9.08
2023-01-08T06:03:43.563Z,9.08
2023-01-08T06:05:45.031Z,9.08
2023-01-08T06:07:46.480Z,9.08
2023-01-08T06:09:47.914Z,9.09
2023-01-08T06:11:49.397Z,9.09
2023-01-08T06:13:50.951Z,9.11
2023-01-08T06:15:52.562Z,9.12
2023-01-08T06:17:54.031Z,9.12
2023-01-08T06:19:55.534Z,9.13
2023-01-08T06:21:57.074Z,9.13
2023-01-08T06:23:58.504Z,9.15
2023-01-08T06:26:01.355Z,9.13
2023-01-08T06:28:03.956Z,9.15
2023-01-08T06:30:06.055Z,9.14
2023-01-08T06:32:07.499Z,9.15
2023-01-08T06:34:09.001Z,9.15
2023-01-08T06:36:10.808Z,9.15
2023-01-08T06:38:12.254Z,9.13
2023-01-08T06:40:13.823Z,9.11
2023-01-08T06:42:15.335Z,9.11
2023-01-08T06:44:16.868Z,9.09
2023-01-08T06:46:18.429Z,9.07
2023-01-08T06:48:19.989Z,9.06
2023-01-08T06:50:21.591Z,9.05
2023-01-08T06:52:23.045Z,9.03
2023-01-08T06:54:24.538Z,9.03
2023-01-08T06:56:26.051Z,9.01
2023-01-08T06:58:28.566Z,9.02
2023-01-08T07:00:30.161Z,9.02
2023-01-08T07:02:31.876Z,9.01
2023-01-08T07:04:33.491Z,9.00
2023-01-08T07:06:34.936Z,9.01
2023-01-08T07:08:36.371Z,9.03
2023-01-08T07:10:37.852Z,9.02
2023-01-08T07:12:39.352Z,9.05
2023-01-08T07:14:41.296Z,9.07
2023-01-08T07:16:42.733Z,9.05
2023-01-08T07:18:44.845Z,9.06
2023-01-08T07:20:48.424Z,9.05
2023-01-08T07:22:49.862Z,9.06
2023-01-08T07:24:52.251Z,9.07
2023-01-08T07:26:53.732Z,9.07
2023-01-08T07:28:55.180Z,9.09
2023-01-08T07:30:57.389Z,9.13
2023-01-08T07:33:00.571Z,9.18
2023-01-08T07:35:02.033Z,9.18
2023-01-08T07:37:04.194Z,9.17
2023-01-08T07:39:05.633Z,9.19
2023-01-08T07:41:07.164Z,9.18
2023-01-08T07:43:09.147Z,9.21
2023-01-08T07:45:11.016Z,9.17
2023-01-08T07:47:12.469Z,9.18
2023-01-08T07:49:13.953Z,9.14
2023-01-08T07:51:15.403Z,9.13
2023-01-08T07:53:17.804Z,9.11
2023-01-08T07:55:19.340Z,9.09
2023-01-08T07:57:20.853Z,9.08
2023-01-08T07:59:22.399Z,9.06
2023-01-08T08:01:26.137Z,9.06
2023-01-08T08:03:27.889Z,9.03
2023-01-08T08:05:29.421Z,9.04
2023-01-08T08:07:31.487Z,9.03
2023-01-08T08:09:33.097Z,9.01
2023-01-08T08:11:34.687Z,8.99
2023-01-08T08:13:36.387Z,9.00
2023-01-08T08:15:38.757Z,9.02
2023-01-08T08:17:40.238Z,9.03
2023-01-08T08:19:43.941Z,9.04
2023-01-08T08:21:45.538Z,9.04
2023-01-08T08:23:46.978Z,9.04
2023-01-08T08:25:48.479Z,9.04
2023-01-08T08:27:50.053Z,9.05
2023-01-08T08:29:51.472Z,9.05
2023-01-08T08:31:52.912Z,9.04
2023-01-08T08:33:54.429Z,9.03
2023-01-08T08:35:55.882Z,9.04
2023-01-08T08:37:58.171Z,9.05
2023-01-08T08:39:59.651Z,9.05
2023-01-08T08:42:01.090Z,9.06
2023-01-08T08:44:02.533Z,9.07
2023-01-08T08:46:04.091Z,9.09
2023-01-08T08:48:07.044Z,9.09
2023-01-08T08:50:08.813Z,9.12
2023-01-08T08:52:10.295Z,9.12
2023-01-08T08:54:11.914Z,9.12
2023-01-08T08:56:13.475Z,9.15
2023-01-08T08:58:14.996Z,9.15
2023-01-08T09:00:16.768Z,9.20
2023-01-08T09:02:18.353Z,9.23
2023-01-08T09:04:19.875Z,9.24
2023-01-08T09:06:21.373Z,9.27
2023-01-08T09:08:22.832Z,9.27
2023-01-08T09:10:24.381Z,9.29
2023-01-08T09:12:25.923Z,9.29
2023-01-08T09:14:27.379Z,9.28
2023-01-08T09:16:28.894Z,9.28
2023-01-08T09:18:30.352Z,9.26
2023-01-08T09:20:32.117Z,9.24
2023-01-08T09:22:33.684Z,9.23
2023-01-08T09:24:35.158Z,9.22
2023-01-08T09:26:36.742Z,9.22
2023-01-08T09:28:39.147Z,9.21
2023-01-08T09:30:40.662Z,9.19
2023-01-08T09:32:42.132Z,9.20
2023-01-08T09:34:43.615Z,9.22
2023-01-08T09:36:45.060Z,9.21
2023-01-08T09:38:46.829Z,9.23
2023-01-08T09:40:48.257Z,9.25
2023-01-08T09:42:57.696Z,9.25
2023-01-08T09:45:01.874Z,9.23
2023-01-08T09:47:04.456Z,9.22
2023-01-08T09:49:12.717Z,9.21
2023-01-08T09:51:17.473Z,9.21
2023-01-08T09:53:19.253Z,9.17
2023-01-08T09:55:21.095Z,9.15
2023-01-08T09:57:22.887Z,9.15
2023-01-08T09:59:24.415Z,9.17
2023-01-08T10:01:33.749Z,9.18
2023-01-08T10:03:49.284Z,9.20
2023-01-08T10:05:52.005Z,9.21
2023-01-08T10:07:53.575Z,9.24
2023-01-08T10:09:56.140Z,9.28
2023-01-08T10:12:03.348Z,9.28
2023-01-08T10:14:17.157Z,9.28
2023-01-08T10:16:28.557Z,9.29
2023-01-08T10:18:30.364Z,9.25
2023-01-08T10:20:33.132Z,9.24
2023-01-08T10:22:34.797Z,9.25
2023-01-08T10:24:39.654Z,9.28
2023-01-08T10:26:41.301Z,9.32
2023-01-08T10:28:42.755Z,9.36
2023-01-08T10:30:44.443Z,9.38
2023-01-08T10:32:54.501Z,9.41
2023-01-08T10:34:57.731Z,9.44
2023-01-08T10:36:59.488Z,9.47
2023-01-08T10:39:04.365Z,9.44
2023-01-08T10:41:11.968Z,9.47
2023-01-08T10:43:28.820Z,9.46
2023-01-08T10:45:30.564Z,9.49
2023-01-08T10:47:35.893Z,9.56
2023-01-08T10:49:43.813Z,9.64
2023-01-08T10:51:50.694Z,9.70
2023-01-08T10:53:54.023Z,9.76
2023-01-08T10:56:03.984Z,9.82
2023-01-08T10:58:08.520Z,9.88
2023-01-08T11:00:31.695Z,9.94
2023-01-08T11:02:38.670Z,9.97
2023-01-08T11:04:41.941Z,10.05
2023-01-08T11:06:45.346Z,10.22
2023-01-08T11:08:51.894Z,10.48
2023-01-08T11:10:59.784Z,11.06
2023-01-08T11:13:04.558Z,11.87
2023-01-08T11:15:23.677Z,12.53
2023-01-08T11:17:26.332Z,13.22
2023-01-08T11:19:30.401Z,13.70
2023-01-08T11:21:33.512Z,13.99
2023-01-08T11:23:35.037Z,14.11
2023-01-08T11:25:37.701Z,14.22
2023-01-08T11:27:44.087Z,14.42
2023-01-08T11:29:51.996Z,14.68
2023-01-08T11:32:08.587Z,14.82
2023-01-08T11:34:22.431Z,15.01
2023-01-08T11:36:38.738Z,15.21
2023-01-08T11:38:40.203Z,15.29
2023-01-08T11:40:52.064Z,15.17
2023-01-08T11:43:03.629Z,15.20
2023-01-08T11:45:23.942Z,15.06
2023-01-08T11:47:28.403Z,14.76
2023-01-08T11:49:55.944Z,14.39
2023-01-08T11:52:23.805Z,14.03
2023-01-08T11:54:37.414Z,13.50
2023-01-08T11:56:56.420Z,13.09
2023-01-08T11:59:03.904Z,12.76
2023-01-08T12:01:23.074Z,12.51
2023-01-08T12:03:36.610Z,12.32
2023-01-08T12:05:46.531Z,12.18
2023-01-08T12:08:05.570Z,12.13
2023-01-08T12:10:27.958Z,12.06
2023-01-08T12:12:45.656Z,11.98
2023-01-08T12:15:32.035Z,11.88
2023-01-08T12:17:51.519Z,11.86
2023-01-08T12:20:34.968Z,11.78
2023-01-08T12:22:47.291Z,11.75
2023-01-08T12:24:54.640Z,11.78
2023-01-08T12:27:05.243Z,11.79
2023-01-08T12:29:41.953Z,11.69
2023-01-08T12:32:01.536Z,11.57
2023-01-08T12:34:15.862Z,11.47
2023-01-08T12:36:48.169Z,11.38
2023-01-08T12:38:56.199Z,11.33
2023-01-08T12:41:06.168Z,11.24
2023-01-08T12:43:14.890Z,11.25
2023-01-08T12:45:20.547Z,11.21
2023-01-08T12:47:27.953Z,11.28
2023-01-08T12:49:43.121Z,11.27
2023-01-08T12:52:02.809Z,11.24
2023-01-08T12:54:23.231Z,11.19
2023-01-08T12:56:43.351Z,11.19
2023-01-08T12:59:18.858Z,11.21
2023-01-08T13:01:42.533Z,11.27
2023-01-08T13:03:45.329Z,11.42
2023-01-08T13:05:46.842Z,11.44
2023-01-08T13:07:54.341Z,11.38
2023-01-08T13:10:05.758Z,11.28
2023-01-08T13:12:07.396Z,11.21
2023-01-08T13:14:12.036Z,11.12
2023-01-08T13:16:19.434Z,11.10
2023-01-08T13:18:21.608Z,11.04
2023-01-08T13:20:28.566Z,10.98
2023-01-08T13:22:32.599Z,10.94
2023-01-08T13:24:37.742Z,11.00
2023-01-08T13:26:39.200Z,11.07
2023-01-08T13:28:45.186Z,11.21
2023-01-08T13:30:49.108Z,11.30
2023-01-08T13:32:50.593Z,11.39
2023-01-08T13:35:17.112Z,11.48
2023-01-08T13:37:27.946Z,11.52
2023-01-08T13:39:39.134Z,11.54
2023-01-08T13:41:44.321Z,11.54
2023-01-08T13:43:46.722Z,11.47
2023-01-08T13:45:54.476Z,11.37
2023-01-08T13:47:57.026Z,11.29
2023-01-08T13:50:01.192Z,11.23
2023-01-08T13:52:03.031Z,11.20
2023-01-08T13:54:15.751Z,11.15
2023-01-08T13:56:18.135Z,11.07
2023-01-08T13:58:25.443Z,11.06
2023-01-08T14:00:39.141Z,11.02
2023-01-08T14:02:50.477Z,10.95
2023-01-08T14:04:53.163Z,10.85
2023-01-08T14:07:12.749Z,10.73
2023-01-08T14:09:25.324Z,10.62
2023-01-08T14:11:37.941Z,10.57
2023-01-08T14:13:39.445Z,10.51
2023-01-08T14:15:41.029Z,10.44
2023-01-08T14:17:44.012Z,10.35
2023-01-08T14:19:46.272Z,10.32
2023-01-08T14:21:55.887Z,10.30
2023-01-08T14:23:57.806Z,10.21
2023-01-08T14:26:06.371Z,10.17
2023-01-08T14:28:17.508Z,10.12
2023-01-08T14:30:19.480Z,10.11
2023-01-08T14:32:26.630Z,10.13
2023-01-08T14:34:30.945Z,10.07
2023-01-08T14:36:32.577Z,10.03
2023-01-08T14:38:34.130Z,9.99
2023-01-08T14:40:43.780Z,9.99
2023-01-08T14:42:53.462Z,9.96
2023-01-08T14:45:11.017Z,9.95
2023-01-08T14:47:18.666Z,9.94
2023-01-08T14:49:23.175Z,9.93
2023-01-08T14:51:27.964Z,9.92
2023-01-08T14:53:36.605Z,9.94
2023-01-08T14:55:44.352Z,9.94
2023-01-08T14:57:48.625Z,9.91
2023-01-08T14:59:56.809Z,9.90
2023-01-08T15:02:01.697Z,9.89
2023-01-08T15:04:20.644Z,9.89
2023-01-08T15:06:29.923Z,9.87
2023-01-08T15:08:39.969Z,9.86
2023-01-08T15:10:42.195Z,9.83
2023-01-08T15:12:43.678Z,9.82
2023-01-08T15:14:45.159Z,9.79
2023-01-08T15:16:47.672Z,9.76
2023-01-08T15:19:02.034Z,9.74
2023-01-08T15:21:03.797Z,9.72
2023-01-08T15:23:05.503Z,9.69
2023-01-08T15:25:07.817Z,9.67
2023-01-08T15:27:18.963Z,9.65
2023-01-08T15:29:37.196Z,9.63
2023-01-08T15:31:41.662Z,9.56
2023-01-08T15:33:44.742Z,9.44
2023-01-08T15:35:47.110Z,9.40
2023-01-08T15:37:48.560Z,9.37
2023-01-08T15:39:50.084Z,9.36
2023-01-08T15:42:09.829Z,9.33
2023-01-08T15:44:15.256Z,9.25
2023-01-08T15:46:16.831Z,9.14
2023-01-08T15:48:18.334Z,9.10
2023-01-08T15:50:20.490Z,9.09
2023-01-08T15:52:29.558Z,9.02
2023-01-08T15:54:31.036Z,8.98
2023-01-08T15:56:32.517Z,8.94
2023-01-08T15:58:34.028Z,8.92
2023-01-08T16:00:35.530Z,8.87
2023-01-08T16:02:53.300Z,8.88
2023-01-08T16:04:57.396Z,8.88
2023-01-08T16:06:58.856Z,8.85
2023-01-08T16:09:00.765Z,8.75
2023-01-08T16:11:02.476Z,8.72
2023-01-08T16:13:03.978Z,8.65
2023-01-08T16:15:09.014Z,8.61
2023-01-08T16:17:10.459Z,8.62
2023-01-08T16:19:11.935Z,8.62
2023-01-08T16:21:13.703Z,8.60
2023-01-08T16:23:15.251Z,8.53
2023-01-08T16:25:16.805Z,8.48
2023-01-08T16:27:18.292Z,8.42
2023-01-08T16:29:19.930Z,8.41
2023-01-08T16:31:21.500Z,8.37
2023-01-08T16:33:23.067Z,8.33
2023-01-08T16:35:24.600Z,8.28
2023-01-08T16:37:26.351Z,8.26
2023-01-08T16:39:28.080Z,8.19
2023-01-08T16:41:29.674Z,8.17
2023-01-08T16:43:39.632Z,8.13
2023-01-08T16:45:46.091Z,8.06
2023-01-08T16:47:47.596Z,8.05
2023-01-08T16:49:50.393Z,7.99
2023-01-08T16:51:51.905Z,7.96
2023-01-08T16:53:53.475Z,7.92
2023-01-08T16:55:54.920Z,7.86
2023-01-08T16:57:56.380Z,7.80
2023-01-08T16:59:57.828Z,7.79
2023-01-08T17:01:59.902Z,7.75
2023-01-08T17:04:01.658Z,7.71
2023-01-08T17:06:05.397Z,7.66
2023-01-08T17:08:08.255Z,7.63
2023-01-08T17:10:10.246Z,7.57
2023-01-08T17:12:11.720Z,7.53
2023-01-08T17:14:13.717Z,7.51
2023-01-08T17:16:17.793Z,7.52
2023-01-08T17:18:19.905Z,7.51
2023-01-08T17:20:21.595Z,7.46
2023-01-08T17:22:23.161Z,7.46
2023-01-08T17:24:24.610Z,7.45
2023-01-08T17:26:26.090Z,7.37
2023-01-08T17:28:29.055Z,7.37
2023-01-08T17:30:30.529Z,7.29
2023-01-08T17:32:32.340Z,7.24
2023-01-08T17:34:33.841Z,7.18
2023-01-08T17:36:36.163Z,7.16
2023-01-08T17:38:37.665Z,7.19
2023-01-08T17:40:39.165Z,7.18
2023-01-08T17:42:40.678Z,7.17
2023-01-08T17:44:42.154Z,7.12
2023-01-08T17:46:45.332Z,7.04
2023-01-08T17:48:46.898Z,7.00
2023-01-08T17:50:48.338Z,6.98
2023-01-08T17:52:49.875Z,6.97
2023-01-08T17:54:52.590Z,6.99
2023-01-08T17:56:54.068Z,6.98
2023-01-08T17:58:55.587Z,6.96
2023-01-08T18:00:57.107Z,6.92
2023-01-08T18:02:58.587Z,6.89
2023-01-08T18:05:00.105Z,6.83
2023-01-08T18:07:01.618Z,6.81
2023-01-08T18:09:04.215Z,6.81
2023-01-08T18:11:07.480Z,6.78
2023-01-08T18:13:08.961Z,6.74
2023-01-08T18:15:10.900Z,6.70
2023-01-08T18:17:12.363Z,6.66
2023-01-08T18:19:14.292Z,6.63
2023-01-08T18:21:15.880Z,6.58
2023-01-08T18:23:18.227Z,6.53
2023-01-08T18:25:19.992Z,6.50
2023-01-08T18:27:21.440Z,6.48
2023-01-08T18:29:22.908Z,6.44
2023-01-08T18:31:24.468Z,6.41
2023-01-08T18:33:27.170Z,6.39
2023-01-08T18:35:28.653Z,6.38
2023-01-08T18:37:32.603Z,6.35
2023-01-08T18:39:34.178Z,6.32
2023-01-08T18:41:58.796Z,6.28
2023-01-08T18:44:01.079Z,6.24
2023-01-08T18:46:05.512Z,6.19
2023-01-08T18:48:09.419Z,6.16
2023-01-08T18:50:11.618Z,6.11
2023-01-08T18:52:14.098Z,6.07
2023-01-08T18:54:15.748Z,6.02
2023-01-08T18:56:23.888Z,5.98
2023-01-08T18:58:25.607Z,5.94
2023-01-08T19:00:27.448Z,5.88
2023-01-08T19:02:30.482Z,5.83
2023-01-08T19:04:31.962Z,5.77
2023-01-08T19:06:33.563Z,5.74
2023-01-08T19:08:35.238Z,5.70
2023-01-08T19:10:38.019Z,5.64
2023-01-08T19:12:39.568Z,5.59
2023-01-08T19:14:41.144Z,5.56
2023-01-08T19:16:48.364Z,5.51
2023-01-08T19:18:50.306Z,5.45
2023-01-08T19:20:51.772Z,5.41
2023-01-08T19:22:54.357Z,5.36
2023-01-08T19:24:56.657Z,5.33
2023-01-08T19:26:58.164Z,5.29
2023-01-08T19:28:59.610Z,5.26
2023-01-08T19:31:02.041Z,5.21
2023-01-08T19:33:03.816Z,5.18
2023-01-08T19:35:06.017Z,5.15
2023-01-08T19:37:07.608Z,5.12
2023-01-08T19:39:11.216Z,5.10
2023-01-08T19:41:32.207Z,5.06
2023-01-08T19:43:42.696Z,5.02
2023-01-08T19:45:44.232Z,4.99
2023-01-08T19:47:45.777Z,4.97
2023-01-08T19:49:48.810Z,4.94
2023-01-08T19:51:51.069Z,4.93
2023-01-08T19:53:53.200Z,4.90
2023-01-08T19:55:54.662Z,4.89
2023-01-08T19:57:56.357Z,4.87
2023-01-08T19:59:57.866Z,4.85
2023-01-08T20:01:59.488Z,4.84
2023-01-08T20:04:01.177Z,4.86
2023-01-08T20:06:19.626Z,4.87
2023-01-08T20:08:21.102Z,4.93
2023-01-08T20:10:22.646Z,4.98
2023-01-08T20:12:24.681Z,5.02
2023-01-08T20:14:26.137Z,5.04
2023-01-08T20:16:29.562Z,5.09
2023-01-08T20:18:31.756Z,5.12
2023-01-08T20:20:33.214Z,5.15
2023-01-08T20:22:34.810Z,5.17
2023-01-08T20:24:38.351Z,5.18
2023-01-08T20:26:44.377Z,5.20
2023-01-08T20:28:46.845Z,5.22
2023-01-08T20:30:48.696Z,5.22
2023-01-08T20:34:56.559Z,5.22
2023-01-08T20:36:58.431Z,5.21
2023-01-08T20:39:08.934Z,5.20
2023-01-08T20:41:11.536Z,5.19
2023-01-08T20:43:13.198Z,5.17
2023-01-08T20:45:15.013Z,5.17
2023-01-08T20:47:16.569Z,5.14
2023-01-08T20:49:20.419Z,5.13
2023-01-08T20:51:21.898Z,5.11
2023-01-08T20:53:24.440Z,5.09
2023-01-08T20:55:25.944Z,5.06
2023-01-08T20:57:28.223Z,5.04
2023-01-08T20:59:29.854Z,5.02
2023-01-08T21:01:33.806Z,4.99
2023-01-08T21:03:36.157Z,4.97
2023-01-08T21:05:39.469Z,4.96
2023-01-08T21:07:40.961Z,4.92
2023-01-08T21:09:44.289Z,4.90
2023-01-08T21:11:45.840Z,4.88
2023-01-08T21:13:47.575Z,4.86
2023-01-08T21:15:49.008Z,4.85
2023-01-08T21:17:50.797Z,4.83
2023-01-08T21:19:52.274Z,4.80
2023-01-08T21:21:53.757Z,4.79
2023-01-08T21:23:55.712Z,4.77
2023-01-08T21:26:03.983Z,4.75
2023-01-08T21:28:05.768Z,4.72
2023-01-08T21:30:08.062Z,4.72
2023-01-08T21:32:09.602Z,4.69
2023-01-08T21:34:11.785Z,4.67
2023-01-08T21:36:16.737Z,4.65
2023-01-08T21:38:18.187Z,4.62
2023-01-08T21:40:19.855Z,4.61
2023-01-08T21:42:39.705Z,4.58
2023-01-08T21:44:59.618Z,4.53
2023-01-08T21:47:02.402Z,4.51
2023-01-08T21:49:03.855Z,4.46
2023-01-08T21:51:05.549Z,4.46
2023-01-08T21:53:25.643Z,4.42
2023-01-08T21:55:27.357Z,4.40
2023-01-08T21:57:28.977Z,4.38
2023-01-08T21:59:30.494Z,4.37
2023-01-08T22:01:32.060Z,4.34
2023-01-08T22:03:33.540Z,4.32
2023-01-08T22:05:34.992Z,4.30
2023-01-08T22:07:36.913Z,4.29
2023-01-08T22:09:38.380Z,4.27
2023-01-08T22:11:40.250Z,4.27
2023-01-08T22:13:41.787Z,4.23
2023-01-08T22:15:43.311Z,4.21
2023-01-08T22:17:44.895Z,4.20
2023-01-08T22:19:46.356Z,4.18
2023-01-08T22:21:47.816Z,4.17
2023-01-08T22:23:49.278Z,4.14
2023-01-08T22:25:50.740Z,4.13
2023-01-08T22:27:54.502Z,4.11
2023-01-08T22:29:56.088Z,4.09
2023-01-08T22:31:57.637Z,4.08
2023-01-08T22:34:00.392Z,4.05
2023-01-08T22:36:06.745Z,4.04
2023-01-08T22:38:09.074Z,4.02
2023-01-08T22:40:11.062Z,4.01
2023-01-08T22:42:12.530Z,3.99
2023-01-08T22:44:14.737Z,3.98
2023-01-08T22:46:16.544Z,3.97
2023-01-08T22:48:18.009Z,3.96
2023-01-08T22:50:19.594Z,3.95
2023-01-08T22:52:21.124Z,3.93
2023-01-08T22:54:22.760Z,3.92
2023-01-08T22:56:24.646Z,3.91
2023-01-08T22:58:28.017Z,3.91
2023-01-08T23:00:29.499Z,3.90
2023-01-08T23:02:31.133Z,3.89
2023-01-08T23:04:32.687Z,3.88
2023-01-08T23:06:34.568Z,3.88
2023-01-08T23:08:36.258Z,3.87
2023-01-08T23:10:38.083Z,3.87
2023-01-08T23:12:39.522Z,3.86
2023-01-08T23:14:41.779Z,3.87
2023-01-08T23:16:43.500Z,3.86
2023-01-08T23:18:45.794Z,3.86
2023-01-08T23:20:47.288Z,3.84
2023-01-08T23:22:49.113Z,3.83
2023-01-08T23:24:50.600Z,3.82
2023-01-08T23:26:52.172Z,3.81
2023-01-08T23:28:55.447Z,3.81
2023-01-08T23:30:56.962Z,3.81
2023-01-08T23:32:59.018Z,3.82
2023-01-08T23:35:00.480Z,3.83
2023-01-08T23:37:01.937Z,3.84
2023-01-08T23:39:04.666Z,3.86
2023-01-08T23:41:07.174Z,3.88
2023-01-08T23:43:09.063Z,3.88
2023-01-08T23:45:11.471Z,3.90
2023-01-08T23:47:12.957Z,3.91
2023-01-08T23:49:14.506Z,3.92
2023-01-08T23:51:15.976Z,3.91
2023-01-08T23:53:17.417Z,3.92
2023-01-08T23:55:19.085Z,3.92
2023-01-08T23:57:20.580Z,3.93
2023-01-08T23:59:22.075Z,3.95
